ADDS METAR Data INFO
IDs: Format: Raw Decoded Include TAF

Data at: 2254 UTC 21 Feb 2018

KASE 212153Z 01006KT 10SM SCT100 M03/M16 A2994 RMK AO2 SLP188 T10281156
KASE 212053Z 02007KT 10SM CLR M03/M13 A2995 RMK AO2 SLP184 T10281133 58022
KASE 211953Z 36005KT 10SM CLR M05/M16 A2997 RMK AO2 SLP201 T10501156
KASE 211853Z 35007KT 10SM CLR M07/M16 A3000 RMK AO2 SLP210 T10721161
KASE 211753Z 34006KT 10SM CLR M09/M16 A3002 RMK AO2 UPB32E42 SLP222 P0000 60000 T10941161 11094 21228 58009
KASE 211653Z 35005KT 10SM CLR M11/M18 A3005 RMK AO2 SLP235 T11111178
KASE 211553Z 00000KT 10SM CLR M13/M19 A3005 RMK AO2 SLP241 T11331189
KASE 211453Z 00000KT 10SM CLR M18/M21 A3005 RMK AO2 SLP253 T11781206 53002
KASE 211353Z 20003KT 10SM CLR M22/M25 A3005 RMK AO2 SLP269 T12221250
KASE 211253Z AUTO 20007KT 10SM CLR M20/M23 A3005 RMK AO2 SLP255 T12001233
KASE 210753Z AUTO 21005KT 10SM CLR M19/M21 A3004 RMK AO2 SLP243 T11891211
KASE 210653Z AUTO 20006KT 10SM FEW050 M16/M19 A3004 RMK AO2 SLP233 T11561189 410501156
KASE 210553Z AUTO 20006KT 10SM OVC060 M14/M19 A3005 RMK AO2 SLP234 60000 T11391189 11100 21139 51015
KASE 201453Z 00000KT 1SM -SN BR VV013 M12/M14 A2976 RMK AO2 SLP102 P0001 60002 T11171139 53020
KASE 201448Z 01004KT 1SM -SN BR VV014 M12/M14 A2975 RMK AO2 P0001
KASE 201409Z 01004KT 2SM -SN BR OVC018 M12/M14 A2973 RMK AO2 P0000 T11221144
KASE 201353Z 00000KT 3SM -SN BR OVC024 M12/M14 A2972 RMK AO2 SNE14B24 SLP087 P0000 T11221139
KASE 201346Z 01003KT 2 1/2SM -SN BR OVC028 M12/M14 A2972 RMK AO2 SNE14B24 P0000 T11221139
KASE 201331Z AUTO 00000KT 1 3/4SM -SN BR OVC032 M12/M14 A2972 RMK AO2 SNE14B24 P0000 T11221144
KASE 201314Z AUTO 00000KT 4SM BR OVC036 M12/M14 A2971 RMK AO2 SNE14 P0000 T11221139
KASE 201307Z AUTO 00000KT 2 1/2SM -SN BR OVC030 M12/M14 A2971 RMK AO2 P0000 T11221139
KASE 201302Z AUTO 00000KT 2SM -SN BR OVC019 M12/M14 A2971 RMK AO2 P0000 T11221139
KASE 201253Z AUTO 00000KT 1 1/4SM -SN BR OVC013 M12/M14 A2970 RMK AO2 SLP079 P0001 T11221139
KASE 201241Z AUTO 00000KT 1 1/4SM -SN BR OVC019 M12/M13 A2970 RMK AO2 P0000 T11221133
KASE 201233Z AUTO 00000KT 2SM -SN BR OVC023 M12/M14 A2970 RMK AO2 P0000 T11221139
KASE 201226Z AUTO 00000KT 3SM -SN BR OVC027 M12/M14 A2970 RMK AO2 P0000 T11221144
KASE 201213Z AUTO 00000KT 2SM -SN BR OVC025 M12/M14 A2969 RMK AO2 P0000 T11221139
KASE 201153Z AUTO 02004KT 1 1/2SM -SN BR OVC017 M12/M14 A2968 RMK AO2 SLP068 P0001 60002 70017 T11221144 11044 21122 53022
KASE 201140Z AUTO 35003KT 1 3/4SM -SN OVC015 M12/M14 A2968 RMK AO2 P0001 T11171144
KASE 201138Z AUTO 00000KT 2SM -SN BR OVC014 M12/M14 A2968 RMK AO2 P0001 T11221144
KASE 201128Z AUTO 01003KT 1 1/4SM -SN BR OVC012 M12/M14 A2967 RMK AO2 P0001 T11221139
KASE 201101Z AUTO 36003KT 1SM -SN BR VV007 M12/M14 A2966 RMK AO2 P0000 T11171139